createdAt,value
2019-05-05T00:03:57.971Z,84.36
2019-05-05T00:08:59.657Z,83.75
2019-05-05T00:14:01.631Z,84.17
2019-05-05T00:19:04.749Z,84.32
2019-05-05T00:24:07.839Z,84.40
2019-05-05T00:29:09.658Z,84.82
2019-05-05T00:34:11.536Z,84.05
2019-05-05T00:39:14.978Z,84.54
2019-05-05T00:44:16.982Z,84.99
2019-05-05T00:49:18.853Z,85.03
2019-05-05T00:54:20.443Z,83.94
2019-05-05T00:59:25.202Z,84.24
2019-05-05T01:04:31.621Z,83.73
2019-05-05T01:09:35.121Z,83.99
2019-05-05T01:14:37.007Z,84.70
2019-05-05T01:19:38.689Z,84.83
2019-05-05T01:24:40.362Z,84.98
2019-05-05T01:29:42.266Z,84.76
2019-05-05T01:34:45.958Z,84.62
2019-05-05T01:39:54.126Z,84.79
2019-05-05T01:44:55.615Z,84.78
2019-05-05T01:49:57.202Z,85.13
2019-05-05T01:54:58.688Z,85.42
2019-05-05T02:00:00.419Z,85.89
2019-05-05T02:05:04.561Z,85.13
2019-05-05T02:10:07.712Z,85.68
2019-05-05T02:15:09.785Z,86.64
2019-05-05T02:20:36.724Z,86.62
2019-05-05T02:25:38.706Z,86.06
2019-05-05T02:30:48.168Z,87.20
2019-05-05T02:35:49.847Z,87.05
2019-05-05T02:40:54.634Z,86.10
2019-05-05T02:46:07.401Z,85.59
2019-05-05T02:51:10.654Z,85.90
2019-05-05T02:56:17.927Z,86.22
2019-05-05T03:01:19.907Z,86.41
2019-05-05T03:06:23.679Z,85.85
2019-05-05T03:11:28.847Z,85.81
2019-05-05T03:16:37.066Z,85.30
2019-05-05T03:21:39.948Z,85.67
2019-05-05T03:26:44.242Z,84.97
2019-05-05T03:31:46.922Z,85.04
2019-05-05T03:36:48.794Z,85.02
2019-05-05T03:42:04.960Z,85.13
2019-05-05T03:47:08.059Z,85.58
2019-05-05T03:52:10.033Z,85.55
2019-05-05T03:57:14.082Z,85.96
2019-05-05T04:02:16.293Z,85.46
2019-05-05T04:07:17.962Z,85.36
2019-05-05T04:12:19.701Z,85.29
2019-05-05T04:17:25.914Z,85.32
2019-05-05T04:22:29.606Z,84.99
2019-05-05T04:27:31.080Z,85.44
2019-05-05T04:32:34.728Z,85.37
2019-05-05T04:37:37.041Z,85.63
2019-05-05T04:42:38.592Z,84.39
2019-05-05T04:47:50.806Z,84.03
2019-05-05T04:52:54.182Z,84.83
2019-05-05T04:57:55.891Z,83.89
2019-05-05T05:03:00.302Z,83.94
2019-05-05T05:08:03.368Z,84.78
2019-05-05T05:13:05.370Z,85.25
2019-05-05T05:18:11.331Z,85.45
2019-05-05T05:23:14.184Z,85.26
2019-05-05T05:28:16.098Z,84.73
2019-05-05T05:33:17.623Z,85.43
2019-05-05T05:38:19.105Z,85.36
2019-05-05T05:43:23.028Z,85.85
2019-05-05T05:48:44.593Z,85.86
2019-05-05T05:53:46.071Z,85.16
2019-05-05T05:58:47.546Z,85.26
2019-05-05T06:03:49.015Z,84.92
2019-05-05T06:08:50.490Z,84.30
2019-05-05T06:13:51.971Z,85.26
2019-05-05T06:18:54.254Z,84.91
2019-05-05T06:23:55.903Z,85.15
2019-05-05T06:28:57.491Z,85.19
2019-05-05T06:33:59.696Z,85.25
2019-05-05T06:39:01.641Z,84.75
2019-05-05T06:44:09.981Z,85.85
2019-05-05T06:49:13.635Z,84.87
2019-05-05T06:54:15.354Z,84.79
2019-05-05T06:59:16.914Z,84.96
2019-05-05T07:04:18.394Z,85.15
2019-05-05T07:09:19.858Z,85.32
2019-05-05T07:14:23.497Z,85.55
2019-05-05T07:19:24.875Z,84.28
2019-05-05T07:24:26.344Z,83.36
2019-05-05T07:29:27.827Z,84.93
2019-05-05T07:34:33.415Z,85.65
2019-05-05T07:39:34.851Z,84.72
2019-05-05T07:44:36.338Z,84.98
2019-05-05T07:49:37.867Z,83.72
2019-05-05T07:54:39.378Z,84.61
2019-05-05T07:59:40.961Z,83.88
2019-05-05T08:04:43.779Z,85.61
2019-05-05T08:09:46.539Z,85.23
2019-05-05T08:14:48.232Z,85.66
2019-05-05T08:19:51.810Z,83.67
2019-05-05T08:24:58.017Z,83.89
2019-05-05T08:30:14.364Z,85.05
2019-05-05T08:35:15.986Z,85.09
2019-05-05T08:40:18.874Z,84.75
2019-05-05T08:45:23.753Z,84.51
2019-05-05T08:50:26.965Z,85.75
2019-05-05T08:55:28.831Z,83.79
2019-05-05T09:00:30.326Z,84.52
2019-05-05T09:05:34.297Z,84.19
2019-05-05T09:10:36.056Z,84.24
2019-05-05T09:15:37.820Z,85.46
2019-05-05T09:20:39.418Z,83.58
2019-05-05T09:25:55.045Z,83.36
2019-05-05T09:30:56.522Z,83.85
2019-05-05T09:35:58.561Z,84.29
2019-05-05T09:41:00.030Z,84.57
2019-05-05T09:46:03.753Z,84.89
2019-05-05T09:51:05.130Z,85.13
2019-05-05T09:56:07.172Z,85.60
2019-05-05T10:01:09.102Z,85.79
2019-05-05T10:06:10.580Z,85.07
2019-05-05T10:11:12.059Z,85.05
2019-05-05T10:16:14.307Z,86.16
2019-05-05T10:21:17.759Z,83.65
2019-05-05T10:26:19.463Z,85.30
2019-05-05T10:31:21.142Z,85.32
2019-05-05T10:36:24.476Z,85.36
2019-05-05T10:41:26.340Z,86.00
2019-05-05T10:46:28.051Z,84.88
2019-05-05T10:51:29.592Z,86.38
2019-05-05T10:56:31.060Z,85.93
2019-05-05T11:01:32.535Z,85.38
2019-05-05T11:06:34.160Z,86.44
2019-05-05T11:11:35.705Z,86.88
2019-05-05T11:16:37.376Z,86.47
2019-05-05T11:21:38.955Z,87.02
2019-05-05T11:26:40.534Z,86.11
2019-05-05T11:31:42.130Z,85.51
2019-05-05T11:36:48.313Z,85.34
2019-05-05T11:41:49.938Z,85.97
2019-05-05T11:46:51.930Z,84.55
2019-05-05T11:51:54.502Z,83.14
2019-05-05T11:56:56.213Z,84.51
2019-05-05T12:01:57.691Z,84.42
2019-05-05T12:06:59.178Z,84.18
2019-05-05T12:12:00.712Z,82.35
2019-05-05T12:17:04.450Z,82.35
2019-05-05T12:22:05.925Z,82.23
2019-05-05T12:27:27.543Z,82.84
2019-05-05T12:32:29.045Z,82.47
2019-05-05T12:37:30.634Z,81.89
2019-05-05T12:42:32.439Z,84.33
2019-05-05T12:47:35.876Z,81.83
2019-05-05T12:52:37.383Z,80.55
2019-05-05T12:57:38.871Z,79.22
2019-05-05T13:02:40.559Z,81.71
2019-05-05T13:07:44.136Z,81.41
2019-05-05T13:12:46.277Z,79.10
2019-05-05T13:17:48.907Z,79.27
2019-05-05T13:22:55.060Z,80.73
2019-05-05T13:27:57.413Z,78.32
2019-05-05T13:33:00.238Z,80.56
2019-05-05T13:38:01.715Z,81.02
2019-05-05T13:43:04.253Z,76.53
2019-05-05T13:48:06.481Z,77.72
2019-05-05T13:53:08.158Z,75.54
2019-05-05T13:58:09.844Z,79.94
2019-05-05T14:03:11.526Z,78.88
2019-05-05T14:08:14.733Z,76.58
2019-05-05T14:13:16.804Z,77.64
2019-05-05T14:18:18.459Z,79.40
2019-05-05T14:23:20.240Z,75.23
2019-05-05T14:28:23.466Z,78.55
2019-05-05T14:33:28.702Z,75.05
2019-05-05T14:38:39.230Z,75.64
2019-05-05T14:43:40.712Z,76.98
2019-05-05T14:48:44.083Z,76.54
2019-05-05T14:53:45.737Z,77.16
2019-05-05T14:58:47.675Z,80.59
2019-05-05T15:03:49.246Z,79.76
2019-05-05T15:09:09.221Z,77.55
2019-05-05T15:14:11.013Z,79.39
2019-05-05T15:19:14.517Z,78.44
2019-05-05T15:24:16.147Z,77.37
2019-05-05T15:29:17.626Z,78.31
2019-05-05T15:34:19.107Z,78.88
2019-05-05T15:39:20.685Z,81.16
2019-05-05T15:44:24.111Z,81.02
2019-05-05T15:49:25.737Z,81.75
2019-05-05T15:54:27.292Z,81.28
2019-05-05T15:59:28.870Z,81.99
2019-05-05T16:04:30.484Z,79.49
2019-05-05T16:09:32.015Z,80.53
2019-05-05T16:14:35.511Z,80.76
2019-05-05T16:19:39.204Z,83.03
2019-05-05T16:24:44.651Z,78.29
2019-05-05T16:29:46.072Z,75.13
2019-05-05T16:34:47.551Z,75.79
2019-05-05T16:39:49.072Z,74.01
2019-05-05T16:44:50.550Z,71.54
2019-05-05T16:49:53.814Z,73.97
2019-05-05T16:55:06.213Z,72.36
2019-05-05T17:00:08.599Z,72.56
2019-05-05T17:05:10.943Z,72.12
2019-05-05T17:10:13.862Z,72.70
2019-05-05T17:15:35.460Z,71.32
2019-05-05T17:20:55.720Z,70.84
2019-05-05T17:25:57.297Z,72.11
2019-05-05T17:30:59.091Z,70.25
2019-05-05T17:36:00.594Z,71.09
2019-05-05T17:41:04.419Z,72.47
2019-05-05T17:46:10.659Z,69.78
2019-05-05T17:51:31.407Z,71.10
2019-05-05T17:56:34.104Z,71.66
2019-05-05T18:01:35.923Z,73.03
2019-05-05T18:06:53.533Z,70.97
2019-05-05T18:11:55.002Z,71.28
2019-05-05T18:16:56.675Z,70.32
2019-05-05T18:21:58.304Z,70.42
2019-05-05T18:26:59.782Z,70.65
2019-05-05T18:32:01.260Z,69.29
2019-05-05T18:37:03.758Z,67.19
2019-05-05T18:42:16.606Z,66.65
2019-05-05T18:47:19.299Z,65.42
2019-05-05T18:52:21.175Z,67.12
2019-05-05T18:57:24.493Z,67.50
2019-05-05T19:02:34.685Z,66.54
2019-05-05T19:07:55.511Z,67.42
2019-05-05T19:12:54.183Z,66.87
2019-05-05T19:17:56.114Z,69.48
2019-05-05T19:23:05.088Z,71.33
2019-05-05T19:28:05.602Z,71.39
2019-05-05T19:33:07.188Z,71.43
2019-05-05T19:38:10.080Z,71.47
2019-05-05T19:43:13.850Z,70.96
2019-05-05T19:48:15.136Z,70.88
2019-05-05T19:53:24.615Z,70.92
2019-05-05T19:58:26.476Z,72.30
2019-05-05T20:03:28.235Z,74.54
2019-05-05T20:08:40.430Z,71.07
2019-05-05T20:13:33.419Z,69.45
2019-05-05T20:18:34.969Z,68.70
2019-05-05T20:23:36.442Z,69.21
2019-05-05T20:28:37.923Z,72.08
2019-05-05T20:33:56.534Z,72.81
2019-05-05T20:38:58.011Z,76.51
2019-05-05T20:43:59.586Z,78.78
2019-05-05T20:49:01.118Z,77.62
2019-05-05T20:54:04.733Z,79.34
2019-05-05T20:59:06.485Z,80.52
2019-05-05T21:04:07.994Z,78.09
2019-05-05T21:09:09.572Z,77.91
2019-05-05T21:14:12.167Z,76.67
2019-05-05T21:19:14.102Z,77.38
2019-05-05T21:24:15.738Z,76.61
2019-05-05T21:29:18.419Z,77.80
2019-05-05T21:34:19.996Z,78.27
2019-05-05T21:39:21.476Z,76.44
2019-05-05T21:44:23.099Z,78.07
2019-05-05T21:49:24.567Z,78.87
2019-05-05T21:54:28.090Z,80.23
2019-05-05T21:59:29.611Z,77.45
2019-05-05T22:04:33.678Z,77.05
2019-05-05T22:09:35.051Z,76.86
2019-05-05T22:14:36.542Z,77.38
2019-05-05T22:19:39.930Z,77.69
2019-05-05T22:24:41.447Z,77.82
2019-05-05T22:29:44.683Z,80.30
2019-05-05T22:34:46.612Z,77.54
2019-05-05T22:39:48.225Z,77.83
2019-05-05T22:44:49.702Z,80.23
2019-05-05T22:49:51.179Z,79.05
2019-05-05T22:54:53.133Z,78.66
2019-05-05T22:59:54.599Z,78.79
2019-05-05T23:05:00.964Z,79.88
2019-05-05T23:10:05.262Z,79.89
2019-05-05T23:15:07.848Z,80.72
2019-05-05T23:20:13.480Z,80.68
2019-05-05T23:25:15.385Z,81.27
2019-05-05T23:30:20.116Z,82.35
2019-05-05T23:35:23.872Z,80.09
2019-05-05T23:40:26.786Z,80.21
2019-05-05T23:45:28.296Z,80.88
2019-05-05T23:50:29.971Z,81.77
2019-05-05T23:55:31.485Z,79.96
